« Back
NWS Peachtree City, Ga » Text Product » ATL Terminal Aerodrome Forecast


Printer-friendly Version
Current Version              Previous Versions:   1  2  3  4  5  6  7  8  9  

Terminal Aerodrome Forecast

087
FTUS42 KFFC 031948 AAB
TAFATL
TAF AMD
KATL 031948Z 0320/0424 32007KT P6SM FEW030 BKN150
      TEMPO 0320/0322 VRB15G30KT TSRA BKN030CB
     FM040000 30004KT P6SM SCT050 SCT150
     FM041400 01004KT P6SM FEW040 SCT250
     FM041800 04005KT P6SM SCT060 BKN250=

USA.gov is the U.S. government's official web portal to all federal, state and local government web resources and services.